Time;durP1;ratioP1;P1;durP2;ratioP2;P2;SDS_P1;SDS_P2;PMS_P1;PMS_P2;Temp;Humidity;BMP_temperature;BMP_pressure;BME280_temperature;BME280_humidity;BME280_pressure;Samples;Min_cycle;Max_cycle;Signal;HPM_P1;HPM_P2
2021/01/19 00:02:45;;;;;;;5.30;1.85;;;;;;;2.04;81.24;99982.31;2041858;77;56032;-76
2021/01/19 00:05:46;;;;;;;2.53;1.45;;;;;;;2.04;81.15;99974.63;2043512;79;20365;-76
2021/01/19 00:08:48;;;;;;;3.56;1.70;;;;;;;2.04;81.05;99966.97;2043614;79;20303;-76
2021/01/19 00:11:50;;;;;;;4.30;1.89;;;;;;;2.04;80.94;99965.28;2043775;79;20348;-77
2021/01/19 00:14:53;;;;;;;2.51;1.59;;;;;;;2.06;80.83;99957.63;2043386;79;20732;-76
2021/01/19 00:17:55;;;;;;;2.34;1.41;;;;;;;2.07;80.84;99957.69;2037796;76;20579;-76
2021/01/19 00:20:57;;;;;;;3.28;1.49;;;;;;;2.09;80.47;99960.31;2037437;79;20921;-76
2021/01/19 00:23:58;;;;;;;2.70;1.63;;;;;;;2.08;80.49;99949.19;2037912;79;20698;-76
2021/01/19 00:27:00;;;;;;;2.30;1.45;;;;;;;2.09;80.36;99950.06;2039057;79;20320;-75
2021/01/19 00:30:03;;;;;;;2.80;1.79;;;;;;;2.07;80.19;99939.78;2038385;79;20707;-76
2021/01/19 00:33:05;;;;;;;3.29;1.81;;;;;;;2.06;79.98;99940.59;2087835;69;20344;-75
2021/01/19 00:36:07;;;;;;;3.28;1.51;;;;;;;2.06;80.03;99943.16;2031170;79;20338;-75
2021/01/19 00:39:08;;;;;;;2.78;1.40;;;;;;;2.07;79.85;99932.09;2027377;79;20323;-75
2021/01/19 00:42:10;;;;;;;2.25;1.50;;;;;;;2.10;79.74;99939.00;2027935;79;20319;-75
2021/01/19 00:45:12;;;;;;;2.81;1.46;;;;;;;2.09;79.67;99929.56;2025818;77;21808;-75
2021/01/19 00:48:14;;;;;;;2.84;1.63;;;;;;;2.08;79.69;99926.16;2022481;80;20315;-75
2021/01/19 00:51:15;;;;;;;3.09;1.36;;;;;;;2.07;79.66;99923.53;2022684;80;20385;-76
2021/01/19 00:54:17;;;;;;;2.95;1.74;;;;;;;2.10;79.46;99923.63;2022172;79;20335;-75
2021/01/19 00:57:19;;;;;;;1.46;1.25;;;;;;;2.10;79.21;99918.50;2022993;80;20436;-75
2021/01/19 01:00:21;;;;;;;3.39;1.60;;;;;;;2.12;79.10;99916.88;2021840;77;24312;-75
2021/01/19 01:03:29;;;;;;;6.70;2.00;;;;;;;2.13;78.81;99910.94;2027633;79;20370;-75
2021/01/19 01:06:31;;;;;;;4.06;1.74;;;;;;;2.15;78.98;99896.50;2027979;79;20376;-75
2021/01/19 01:09:37;;;;;;;4.66;1.40;;;;;;;2.15;78.91;99906.75;2027747;79;20375;-75
2021/01/19 01:12:43;;;;;;;4.47;1.48;;;;;;;2.14;79.08;99899.88;2027394;79;20855;-75
2021/01/19 01:27:39;;;;;;;2.97;1.63;;;;;;;2.12;79.15;99896.38;2019399;80;20339;-77
2021/01/19 01:30:41;;;;;;;3.29;1.52;;;;;;;2.11;79.17;99889.53;2022049;77;21686;-75
2021/01/19 01:33:43;;;;;;;6.21;1.64;;;;;;;2.11;79.18;99881.84;2027422;79;20311;-75
2021/01/19 01:36:44;;;;;;;3.51;1.50;;;;;;;2.10;79.28;99880.09;2028177;79;20344;-75
2021/01/19 01:39:46;;;;;;;1.77;1.34;;;;;;;2.09;79.51;99870.66;2027108;79;20904;-75
2021/01/19 01:42:51;;;;;;;1.79;1.45;;;;;;;2.08;79.64;99869.78;2026433;79;21081;-75
2021/01/19 01:45:53;;;;;;;1.76;1.40;;;;;;;2.11;79.56;99881.84;2023847;77;22002;-77
2021/01/19 01:48:54;;;;;;;3.08;1.49;;;;;;;2.09;79.36;99868.09;2022110;80;20369;-77
2021/01/19 01:51:57;;;;;;;2.92;1.40;;;;;;;2.08;79.41;99858.69;2021902;80;20505;-77
2021/01/19 01:54:59;;;;;;;2.96;1.23;;;;;;;2.07;79.33;99857.81;2022209;80;20745;-77
2021/01/19 01:58:03;;;;;;;4.04;1.59;;;;;;;2.07;79.39;99845.00;2022682;80;20902;-77
2021/01/19 02:01:05;;;;;;;1.84;1.36;;;;;;;2.08;79.37;99839.06;2022834;77;21045;-77
2021/01/19 02:04:07;;;;;;;4.13;1.46;;;;;;;2.08;79.36;99844.19;2027413;79;20382;-77
2021/01/19 02:11:17;;;;;;;3.97;1.56;;;;;;;2.05;79.54;99841.53;2027153;79;20904;-75
2021/01/19 02:18:28;;;;;;;3.55;1.83;;;;;;;2.04;79.80;99836.34;2027511;79;20377;-75
2021/01/19 02:21:47;;;;;;;2.64;1.39;;;;;;;2.04;79.88;99833.78;2026393;79;20299;-75
2021/01/19 02:25:07;;;;;;;4.32;1.95;;;;;;;2.04;79.72;99821.84;2030496;79;20363;-75
2021/01/19 02:28:26;;;;;;;3.98;1.69;;;;;;;2.05;79.62;99827.84;2027528;79;20739;-75
2021/01/19 02:31:47;;;;;;;7.65;1.67;;;;;;;2.06;79.71;99816.78;2023908;79;21693;-75
2021/01/19 02:35:21;;;;;;;3.66;1.60;;;;;;;2.06;79.80;99819.34;2021738;80;20359;-75
2021/01/19 02:42:26;;;;;;;3.10;1.41;;;;;;;2.01;80.06;99821.75;2022028;80;20872;-75
2021/01/19 02:45:28;;;;;;;3.81;1.38;;;;;;;2.01;80.10;99816.63;2021995;77;20919;-74
2021/01/19 02:48:30;;;;;;;5.19;1.64;;;;;;;2.01;80.22;99816.63;2026878;79;20322;-75
2021/01/19 02:55:29;;;;;;;4.00;1.89;;;;;;;1.98;80.37;99788.34;2026509;79;20348;-75
2021/01/19 02:59:02;;;;;;;2.76;1.40;;;;;;;1.99;80.53;99792.66;2030271;79;20366;-75
2021/01/19 03:02:11;;;;;;;4.10;1.54;;;;;;;1.99;80.61;99778.97;2023857;77;27114;-75
2021/01/19 03:05:15;;;;;;;1.73;1.30;;;;;;;1.98;80.66;99772.97;2023134;80;20355;-75
2021/01/19 03:08:19;;;;;;;3.75;1.65;;;;;;;1.97;80.71;99767.78;2023726;80;20833;-75
2021/01/19 03:11:22;;;;;;;3.06;1.50;;;;;;;1.99;80.70;99768.72;2023708;80;20315;-75
2021/01/19 03:14:25;;;;;;;5.43;1.33;;;;;;;2.00;80.64;99763.66;2023488;80;20323;-75
2021/01/19 03:17:26;;;;;;;2.64;1.31;;;;;;;2.00;80.70;99750.00;2022595;79;20524;-75
2021/01/19 03:20:28;;;;;;;4.91;1.89;;;;;;;2.00;80.71;99757.66;2023733;80;20341;-74
2021/01/19 03:23:30;;;;;;;3.22;1.58;;;;;;;1.99;80.63;99746.56;2023911;80;21257;-75
2021/01/19 03:26:32;;;;;;;3.44;1.41;;;;;;;1.99;80.63;99744.00;2024112;80;20308;-75
2021/01/19 03:29:34;;;;;;;4.63;1.64;;;;;;;1.99;80.64;99732.88;2024674;80;20300;-74
2021/01/19 03:32:36;;;;;;;3.34;1.58;;;;;;;1.99;80.65;99727.75;2027911;77;35707;-75
2021/01/19 03:35:39;;;;;;;3.67;1.42;;;;;;;1.99;80.74;99736.31;2029290;79;20315;-75
2021/01/19 03:38:40;;;;;;;7.88;2.76;;;;;;;2.00;80.61;99730.38;2029202;79;20326;-75
2021/01/19 03:41:42;;;;;;;6.00;1.77;;;;;;;2.00;80.64;99722.69;2029529;79;20375;-75
2021/01/19 03:44:44;;;;;;;5.81;1.56;;;;;;;2.00;80.64;99717.56;2028990;79;20314;-75
2021/01/19 03:47:46;;;;;;;5.40;1.77;;;;;;;2.00;80.70;99721.81;2023870;77;25916;-75
2021/01/19 03:50:47;;;;;;;11.90;3.90;;;;;;;1.99;80.61;99718.38;2024017;80;20348;-75
2021/01/19 03:53:50;;;;;;;5.59;2.34;;;;;;;2.00;80.57;99722.69;2024129;79;20357;-75
2021/01/19 03:56:51;;;;;;;2.81;1.69;;;;;;;1.99;80.55;99720.09;2024326;80;20343;-75
2021/01/19 03:59:53;;;;;;;3.42;1.71;;;;;;;1.98;80.50;99714.09;2027179;79;20319;-75
2021/01/19 04:02:55;;;;;;;3.70;1.65;;;;;;;1.99;80.60;99708.16;2027604;77;22555;-75
2021/01/19 04:05:56;;;;;;;4.06;1.92;;;;;;;1.97;80.48;99699.50;2028292;79;20654;-75
2021/01/19 04:08:58;;;;;;;7.99;2.06;;;;;;;1.97;80.47;99696.94;2028044;79;20824;-75
2021/01/19 04:11:59;;;;;;;2.83;2.17;;;;;;;1.97;80.54;99696.09;2028015;79;20332;-75
2021/01/19 04:15:02;;;;;;;5.32;2.00;;;;;;;1.95;80.63;99692.59;2027227;79;20364;-75
2021/01/19 04:18:04;;;;;;;2.71;1.85;;;;;;;1.94;80.68;99684.03;2022533;79;20661;-75
2021/01/19 04:21:06;;;;;;;3.96;1.61;;;;;;;1.95;80.58;99679.78;2023065;80;20333;-75
2021/01/19 04:24:07;;;;;;;3.91;1.90;;;;;;;1.95;80.58;99674.69;2022257;80;20320;-75
2021/01/19 04:27:09;;;;;;;4.32;2.26;;;;;;;1.93;80.64;99666.06;2022618;80;20366;-75
2021/01/19 04:30:11;;;;;;;7.91;1.73;;;;;;;1.90;80.63;99660.84;2023123;79;20354;-75
2021/01/19 04:33:14;;;;;;;2.40;1.90;;;;;;;1.88;80.89;99657.38;2029358;79;20396;-75
2021/01/19 04:36:18;;;;;;;4.47;2.08;;;;;;;1.88;80.86;99645.44;2028175;79;20424;-75
2021/01/19 04:39:20;;;;;;;6.24;2.22;;;;;;;1.87;80.88;99651.38;2027753;79;20314;-76
2021/01/19 04:42:22;;;;;;;5.79;2.74;;;;;;;1.84;80.95;99635.94;2027853;79;20318;-75
2021/01/19 04:45:25;;;;;;;4.64;2.34;;;;;;;1.84;81.07;99637.63;2026284;77;26788;-75
2021/01/19 04:48:27;;;;;;;3.89;2.31;;;;;;;1.81;81.18;99631.56;2022467;80;20308;-75
2021/01/19 04:51:33;;;;;;;4.82;2.39;;;;;;;1.83;81.14;99634.19;2023019;80;20300;-75
2021/01/19 04:54:57;;;;;;;5.55;2.35;;;;;;;1.82;81.23;99632.44;2022557;80;20337;-75
2021/01/19 04:58:04;;;;;;;5.26;2.70;;;;;;;1.81;81.11;99625.59;2022907;80;20365;-75
2021/01/19 05:01:08;;;;;;;6.97;2.64;;;;;;;1.79;81.04;99610.16;2023594;77;22209;-75
2021/01/19 05:04:22;;;;;;;5.81;3.10;;;;;;;1.79;81.13;99609.28;2027537;79;20448;-75
2021/01/19 05:07:34;;;;;;;6.38;2.61;;;;;;;1.77;81.10;99601.53;2027333;79;20790;-75
2021/01/19 05:10:36;;;;;;;5.88;2.61;;;;;;;1.75;81.20;99602.31;2028184;79;21072;-74
2021/01/19 05:13:41;;;;;;;3.89;2.41;;;;;;;1.74;81.10;99600.59;2027615;79;20844;-74
2021/01/19 05:16:42;;;;;;;7.56;4.06;;;;;;;1.72;81.18;99597.09;2026243;77;21890;-75
2021/01/19 05:19:45;;;;;;;4.84;2.38;;;;;;;1.71;81.20;99585.13;2028887;79;20573;-75
2021/01/19 05:22:46;;;;;;;5.25;2.64;;;;;;;1.70;81.24;99581.69;2027046;79;20364;-75
2021/01/19 05:26:02;;;;;;;9.71;3.29;;;;;;;1.71;81.20;99585.13;2027028;79;20441;-74
2021/01/19 05:29:05;;;;;;;6.84;3.50;;;;;;;1.70;81.19;99579.13;2027461;79;20329;-75
2021/01/19 05:32:06;;;;;;;6.81;3.16;;;;;;;1.70;81.16;99585.94;2022737;77;24205;-75
2021/01/19 05:35:18;;;;;;;4.31;3.09;;;;;;;1.69;81.12;99572.28;2022387;80;20316;-75
2021/01/19 05:38:20;;;;;;;5.72;3.26;;;;;;;1.71;81.20;99580.00;2022440;80;20319;-75
2021/01/19 05:41:35;;;;;;;7.00;3.91;;;;;;;1.71;81.08;99572.31;2021898;80;20352;-74
2021/01/19 05:44:37;;;;;;;6.26;3.10;;;;;;;1.69;81.06;99554.38;2021370;80;20303;-74
2021/01/19 05:47:39;;;;;;;7.04;3.88;;;;;;;1.72;80.84;99553.59;2025349;77;21831;-74
2021/01/19 05:50:41;;;;;;;6.54;2.92;;;;;;;1.72;80.70;99535.69;2027270;79;20319;-75
2021/01/19 05:53:50;;;;;;;5.35;2.45;;;;;;;1.74;80.65;99528.91;2027286;79;20362;-75
2021/01/19 05:56:58;;;;;;;;;;;;;;;1.75;80.56;99520.41;2027274;79;20315;-75
2021/01/19 06:00:02;;;;;;;5.06;2.81;;;;;;;1.76;80.48;99519.59;2027719;79;20054;-74
2021/01/19 06:03:14;;;;;;;9.61;2.50;;;;;;;1.72;80.50;99533.97;2026762;76;21497;-75
2021/01/19 06:06:16;;;;;;;4.84;2.38;;;;;;;1.75;80.62;99535.78;2027258;79;20788;-75
2021/01/19 06:09:22;;;;;;;4.35;2.25;;;;;;;1.75;80.64;99525.53;2028386;79;20322;-77
2021/01/19 06:12:34;;;;;;;6.04;2.54;;;;;;;1.76;80.54;99524.72;2026520;79;20298;-75
2021/01/19 06:15:35;;;;;;;5.75;2.47;;;;;;;1.79;80.52;99535.91;2025531;77;24059;-75
2021/01/19 06:18:40;;;;;;;6.01;2.95;;;;;;;1.78;80.18;99534.16;2022645;80;20421;-75
2021/01/19 06:21:43;;;;;;;4.75;2.55;;;;;;;1.82;80.14;99527.50;2021910;80;20320;-75
2021/01/19 06:24:46;;;;;;;4.78;2.55;;;;;;;1.83;80.21;99519.00;2021974;80;20942;-74
2021/01/19 06:27:48;;;;;;;5.21;2.46;;;;;;;1.85;80.15;99526.72;2021877;80;20304;-75
2021/01/19 06:30:49;;;;;;;5.50;2.50;;;;;;;1.85;80.12;99521.59;2022851;77;21295;-75
2021/01/19 06:33:51;;;;;;;7.31;3.56;;;;;;;1.86;79.99;99519.09;2026077;79;20344;-74
2021/01/19 06:36:53;;;;;;;4.05;2.11;;;;;;;1.87;79.96;99525.06;2026937;79;20348;-75
2021/01/19 06:40:00;;;;;;;3.42;2.33;;;;;;;1.90;79.92;99520.03;2026875;79;20334;-74
2021/01/19 06:43:04;;;;;;;6.63;2.79;;;;;;;1.90;79.81;99517.47;2026670;79;20334;-74
2021/01/19 06:46:08;;;;;;;5.26;2.29;;;;;;;1.91;79.79;99514.97;2023880;76;28085;-73
2021/01/19 06:49:12;;;;;;;5.95;2.33;;;;;;;1.95;79.88;99508.25;2022231;80;20309;-72
2021/01/19 06:52:16;;;;;;;4.43;2.49;;;;;;;1.94;79.61;99507.38;2022464;80;20331;-71
2021/01/19 06:55:20;;;;;;;4.82;2.36;;;;;;;1.93;79.52;99500.53;2021957;80;20821;-72
2021/01/19 06:58:44;;;;;;;5.93;2.83;;;;;;;1.97;79.60;99494.66;2022150;79;20340;-72
2021/01/19 07:01:56;;;;;;;2.78;2.11;;;;;;;1.97;79.53;99497.22;2023809;77;20327;-72
2021/01/19 07:05:07;;;;;;;4.79;2.65;;;;;;;1.97;79.49;99492.09;2027710;79;20307;-72
2021/01/19 07:08:21;;;;;;;2.59;2.01;;;;;;;1.96;79.40;99487.81;2026948;79;20338;-72
2021/01/19 07:11:51;;;;;;;4.99;2.36;;;;;;;1.95;79.33;99488.63;2027377;79;20334;-73
2021/01/19 07:15:04;;;;;;;5.22;3.31;;;;;;;1.98;79.38;99498.13;2024909;79;20351;-74
2021/01/19 07:18:37;;;;;;;4.76;2.19;;;;;;;2.00;79.24;99499.03;2022042;78;22338;-74
2021/01/19 07:22:17;;;;;;;3.84;2.36;;;;;;;2.02;79.48;99484.59;2021505;80;20345;-74
2021/01/19 07:25:18;;;;;;;7.09;2.35;;;;;;;2.01;79.33;99467.50;2010214;80;20342;-77
2021/01/19 07:28:20;;;;;;;5.39;2.56;;;;;;;2.02;79.14;99464.97;2021602;80;20352;-74
2021/01/19 07:31:23;;;;;;;5.03;2.50;;;;;;;2.00;79.18;99453.81;2021359;77;21463;-75
2021/01/19 07:34:25;;;;;;;6.31;3.51;;;;;;;2.02;79.25;99439.38;2022412;80;20884;-74
2021/01/19 07:37:36;;;;;;;5.43;2.84;;;;;;;2.05;79.17;99438.59;2022202;80;20802;-73
2021/01/19 07:40:45;;;;;;;4.19;2.42;;;;;;;2.06;78.89;99422.41;2022239;80;20788;-73
2021/01/19 07:43:46;;;;;;;3.46;2.22;;;;;;;2.09;78.93;99417.38;2021683;80;20972;-73
2021/01/19 07:46:54;;;;;;;6.15;2.38;;;;;;;2.08;78.83;99433.56;2024345;77;21951;-74
2021/01/19 07:50:01;;;;;;;5.88;3.01;;;;;;;2.10;78.97;99434.47;2026721;80;20319;-71
2021/01/19 07:53:02;;;;;;;4.28;2.14;;;;;;;2.10;79.03;99437.91;2027230;79;20375;-75
2021/01/19 07:56:04;;;;;;;6.22;2.88;;;;;;;2.12;78.87;99435.38;2028223;79;20318;-76
2021/01/19 07:59:20;;;;;;;4.79;2.51;;;;;;;2.11;78.75;99431.94;2027172;80;21212;-78
2021/01/19 08:02:23;;;;;;;4.66;2.44;;;;;;;2.13;78.74;99427.72;2027027;77;27431;-74
2021/01/19 08:05:26;;;;;;;5.15;2.60;;;;;;;2.15;78.86;99426.91;2026552;80;20323;-75
2021/01/19 08:08:37;;;;;;;3.26;2.56;;;;;;;2.15;78.42;99430.34;2027465;79;20350;-75
2021/01/19 08:11:41;;;;;;;3.72;1.98;;;;;;;2.16;78.36;99428.69;2028344;79;20844;-75
2021/01/19 08:14:51;;;;;;;4.49;2.46;;;;;;;2.19;78.51;99423.63;2027558;79;20880;-75
2021/01/19 08:17:55;;;;;;;4.68;2.31;;;;;;;2.23;78.74;99413.53;2023040;77;22036;-76
2021/01/19 08:21:04;;;;;;;4.25;2.41;;;;;;;2.26;78.52;99415.28;2022774;80;20323;-75
2021/01/19 08:24:08;;;;;;;6.10;2.74;;;;;;;2.26;78.48;99405.91;2023011;80;20324;-80
2021/01/19 08:27:10;;;;;;;5.01;2.04;;;;;;;2.26;78.14;99398.22;2023053;80;20887;-76
2021/01/19 08:30:26;;;;;;;5.74;2.19;;;;;;;2.29;78.06;99393.19;2021611;77;21825;-76
2021/01/19 08:33:28;;;;;;;4.95;2.36;;;;;;;2.34;77.79;99401.91;2027561;79;21182;-76
2021/01/19 08:36:31;;;;;;;5.47;2.30;;;;;;;2.39;77.78;99395.19;2027664;79;20315;-76
2021/01/19 08:39:32;;;;;;;5.40;2.05;;;;;;;2.44;77.77;99395.31;2027770;79;20311;-76
2021/01/19 08:42:51;;;;;;;7.04;2.48;;;;;;;2.44;77.63;99379.94;2028032;79;20346;-76
2021/01/19 08:45:54;;;;;;;6.84;2.15;;;;;;;2.48;77.47;99384.31;2026055;77;22731;-76
2021/01/19 08:49:04;;;;;;;6.19;2.30;;;;;;;2.48;77.32;99381.75;2027309;79;20315;-75
2021/01/19 08:52:07;;;;;;;2.71;2.03;;;;;;;2.48;77.02;99379.19;2038660;79;20319;-82
2021/01/19 08:55:16;;;;;;;5.10;2.21;;;;;;;2.52;77.23;99380.19;2034878;79;21080;-81
2021/01/19 08:58:19;;;;;;;6.03;2.31;;;;;;;2.51;77.19;99378.41;2034725;79;20307;-80
2021/01/19 09:01:22;;;;;;;4.69;2.29;;;;;;;2.50;77.18;99374.13;2034710;77;33026;-81
2021/01/19 09:04:25;;;;;;;5.70;2.24;;;;;;;2.48;76.81;99363.81;2037288;79;20364;-80
2021/01/19 09:07:30;;;;;;;3.30;2.04;;;;;;;2.52;76.94;99369.94;2032480;79;20326;-80
2021/01/19 09:10:32;;;;;;;6.18;2.24;;;;;;;2.54;77.10;99364.00;2030310;79;20307;-80
2021/01/19 09:13:39;;;;;;;9.10;2.38;;;;;;;2.54;76.81;99364.00;2029567;79;20365;-80
2021/01/19 09:16:40;;;;;;;3.59;2.13;;;;;;;2.55;77.06;99352.94;2028295;79;22494;-80
2021/01/19 09:19:42;;;;;;;2.92;1.73;;;;;;;2.54;77.03;99360.59;2031115;79;20715;-80
2021/01/19 09:22:44;;;;;;;2.76;2.10;;;;;;;2.54;76.73;99352.91;2034418;79;20338;-80
2021/01/19 09:25:46;;;;;;;4.57;2.15;;;;;;;2.56;76.48;99359.78;2028650;79;20449;-80
2021/01/19 09:28:48;;;;;;;4.74;1.90;;;;;;;2.57;76.67;99366.66;2029553;79;20310;-81
2021/01/19 09:31:50;;;;;;;4.94;2.31;;;;;;;2.59;76.95;99353.88;2027470;77;21255;-80
2021/01/19 09:34:52;;;;;;;4.03;1.99;;;;;;;2.61;77.06;99360.78;2030527;79;20331;-81
2021/01/19 09:37:54;;;;;;;3.28;1.86;;;;;;;2.59;77.30;99365.00;2032553;79;20330;-81
2021/01/19 09:40:56;;;;;;;9.39;2.83;;;;;;;2.56;77.67;99356.34;2033524;79;20330;-80
2021/01/19 09:43:57;;;;;;;2.61;2.06;;;;;;;2.52;77.96;99357.13;2030981;79;20322;-80
2021/01/19 09:47:02;;;;;;;5.41;2.45;;;;;;;2.52;78.06;99354.56;2032598;77;22201;-81
2021/01/19 09:50:07;;;;;;;2.91;2.05;;;;;;;2.50;78.61;99362.16;2038859;79;20547;-81
2021/01/19 09:53:09;;;;;;;6.60;2.41;;;;;;;2.51;78.73;99361.34;2038643;79;20338;-82
2021/01/19 09:56:16;;;;;;;4.78;2.06;;;;;;;2.48;78.92;99350.16;2088980;69;20513;-82
2021/01/19 09:59:25;;;;;;;4.78;2.56;;;;;;;2.42;79.33;99354.28;2048078;79;20341;-82
2021/01/19 10:02:28;;;;;;;6.30;2.44;;;;;;;2.44;79.69;99367.13;2048194;76;179788;-83
2021/01/19 10:05:30;;;;;;;4.24;2.45;;;;;;;2.40;80.13;99362.75;2081291;68;20368;-83
2021/01/19 10:08:36;;;;;;;5.35;2.56;;;;;;;2.42;80.41;99356.84;2032490;80;20353;-82
2021/01/19 10:11:37;;;;;;;5.25;2.72;;;;;;;2.37;80.62;99355.88;2029343;80;20340;-79
2021/01/19 10:14:41;;;;;;;4.63;2.31;;;;;;;2.35;81.24;99349.84;2027916;80;20477;-81
2021/01/19 10:18:00;;;;;;;6.84;3.14;;;;;;;2.34;81.62;99355.78;2026546;77;23085;-80
2021/01/19 10:21:07;;;;;;;5.95;2.88;;;;;;;2.33;81.78;99351.44;2028261;80;20653;-80
2021/01/19 10:24:14;;;;;;;3.91;2.49;;;;;;;2.32;82.09;99344.59;2030650;80;20346;-81
2021/01/19 10:27:22;;;;;;;3.34;2.30;;;;;;;2.30;82.39;99335.13;2114260;69;20365;-83
2021/01/19 10:30:33;;;;;;;6.31;2.24;;;;;;;2.29;82.79;99325.72;2039671;77;175228;-84
2021/01/19 10:33:39;;;;;;;3.49;2.39;;;;;;;2.26;83.10;99331.63;2036748;80;20342;-83
2021/01/19 10:39:59;;;;;;;3.19;2.24;;;;;;;2.25;83.78;99327.34;2043352;69;20385;-84
2021/01/19 10:43:08;;;;;;;3.58;2.08;;;;;;;2.25;83.87;99322.22;2039675;80;20330;-84
2021/01/19 10:49:29;;;;;;;7.65;2.69;;;;;;;2.27;84.35;99307.75;2050058;69;20270;-83
2021/01/19 10:52:31;;;;;;;4.91;2.80;;;;;;;2.28;84.45;99303.50;2036490;80;20361;-84
2021/01/19 10:55:33;;;;;;;5.72;2.31;;;;;;;2.26;84.72;99289.78;2038102;80;20268;-85
2021/01/19 10:58:35;;;;;;;4.03;2.28;;;;;;;2.27;85.15;99291.50;2042955;80;20369;-85
2021/01/19 11:01:40;;;;;;;5.57;2.41;;;;;;;2.23;85.11;99277.75;2038189;77;158593;-85
2021/01/19 11:04:44;;;;;;;5.46;2.20;;;;;;;2.27;85.22;99276.16;2035492;80;20324;-84
2021/01/19 11:07:48;;;;;;;5.70;2.64;;;;;;;2.22;85.32;99273.47;2035354;80;20292;-85
2021/01/19 11:10:52;;;;;;;3.72;1.74;;;;;;;2.18;85.38;99270.78;2040802;80;20401;-85
2021/01/19 11:14:02;;;;;;;3.78;2.15;;;;;;;2.20;85.52;99274.25;2040471;80;20406;-85
2021/01/19 11:20:52;;;;;;;4.70;1.93;;;;;;;2.18;85.88;99270.78;2024611;69;20426;-86
2021/01/19 11:23:58;;;;;;;3.99;1.84;;;;;;;2.20;86.11;99269.13;2036645;70;20175;-84
2021/01/19 11:27:09;;;;;;;8.23;1.94;;;;;;;2.22;86.14;99273.47;2082935;70;20381;-84
2021/01/19 11:30:18;;;;;;;4.39;1.75;;;;;;;2.23;86.20;99259.84;2030356;77;181681;-83
2021/01/19 11:33:19;;;;;;;5.93;1.92;;;;;;;2.27;86.17;99258.22;2022394;80;20325;-79
2021/01/19 11:36:27;;;;;;;3.22;1.71;;;;;;;2.28;86.14;99250.56;2019554;80;20470;-77
2021/01/19 11:39:29;;;;;;;4.93;1.65;;;;;;;2.30;86.34;99258.28;2016216;80;20343;-75
2021/01/19 11:42:34;;;;;;;3.51;1.77;;;;;;;2.26;86.34;99254.78;2017237;80;20754;-76
2021/01/19 11:45:35;;;;;;;4.19;1.60;;;;;;;2.26;86.44;99246.22;2015693;78;20542;-75
2021/01/19 11:48:38;;;;;;;6.47;1.76;;;;;;;2.25;86.57;99240.25;2017802;80;20334;-76
2021/01/19 11:51:40;;;;;;;5.75;1.96;;;;;;;2.25;86.86;99240.25;2016924;80;20816;-77
2021/01/19 11:54:42;;;;;;;2.47;1.48;;;;;;;2.27;86.85;99237.72;2016619;80;20333;-78
2021/01/19 11:57:44;;;;;;;3.38;1.63;;;;;;;2.28;86.98;99245.44;2017438;80;20659;-77
2021/01/19 12:00:45;;;;;;;4.69;2.01;;;;;;;2.25;86.93;99230.00;2015518;78;20349;-76
2021/01/19 12:03:48;;;;;;;3.99;1.71;;;;;;;2.27;87.20;99237.72;2015913;80;20317;-76
2021/01/19 12:06:50;;;;;;;4.22;2.17;;;;;;;2.29;87.30;99234.38;2016070;80;20346;-77
2021/01/19 12:09:51;;;;;;;3.25;2.11;;;;;;;2.33;87.41;99232.75;2015910;80;20332;-76
2021/01/19 12:12:53;;;;;;;2.85;2.40;;;;;;;2.35;87.41;99231.13;2015870;80;20309;-76
2021/01/19 12:15:55;;;;;;;8.26;1.90;;;;;;;2.35;87.39;99223.44;2014593;78;21309;-76
2021/01/19 12:18:56;;;;;;;3.75;1.65;;;;;;;2.35;87.58;99219.19;2016495;80;20337;-74
2021/01/19 12:21:59;;;;;;;2.97;1.69;;;;;;;2.36;87.67;99220.03;2016868;80;20424;-74
2021/01/19 12:25:01;;;;;;;3.41;1.60;;;;;;;2.37;87.85;99211.53;2015968;80;20817;-73
2021/01/19 12:28:03;;;;;;;4.84;1.63;;;;;;;2.37;87.95;99211.53;2016766;80;20338;-74
2021/01/19 12:31:05;;;;;;;6.50;1.67;;;;;;;2.37;88.14;99211.53;2014863;78;20861;-76
2021/01/19 12:34:07;;;;;;;2.70;1.23;;;;;;;2.35;88.20;99202.94;2015733;80;20329;-75
2021/01/19 12:37:08;;;;;;;3.78;1.60;;;;;;;2.34;88.11;99208.88;2015940;80;20787;-76
2021/01/19 12:40:11;;;;;;;3.59;1.64;;;;;;;2.37;88.22;99198.72;2016006;80;20309;-76
2021/01/19 12:43:12;;;;;;;3.76;1.27;;;;;;;2.40;88.08;99198.78;2015835;80;20376;-74
2021/01/19 12:46:14;;;;;;;2.34;1.17;;;;;;;2.41;88.01;99203.06;2015205;77;24561;-72
2021/01/19 12:49:16;;;;;;;2.25;1.05;;;;;;;2.42;87.96;99199.69;2016014;80;20314;-72
2021/01/19 12:52:18;;;;;;;2.40;1.10;;;;;;;2.43;88.03;99188.59;2015322;80;20359;-72
2021/01/19 12:55:20;;;;;;;4.22;1.34;;;;;;;2.42;88.03;99192.88;2016297;80;20341;-71
2021/01/19 12:58:21;;;;;;;2.49;1.40;;;;;;;2.44;88.08;99187.78;2015637;80;20931;-72
2021/01/19 13:01:23;;;;;;;3.33;1.25;;;;;;;2.43;88.08;99194.59;2014886;78;20498;-71
2021/01/19 13:04:25;;;;;;;3.22;1.40;;;;;;;2.45;88.03;99184.38;2015339;80;20369;-71
2021/01/19 13:07:26;;;;;;;3.05;1.24;;;;;;;2.47;87.97;99180.16;2013188;80;20366;-72
2021/01/19 13:10:28;;;;;;;3.56;1.38;;;;;;;2.45;87.92;99186.06;2015522;80;20390;-71
2021/01/19 13:13:30;;;;;;;4.82;1.61;;;;;;;2.45;88.10;99176.69;2015435;80;20359;-72
2021/01/19 13:16:32;;;;;;;1.79;1.35;;;;;;;2.45;88.06;99169.00;2014712;78;51732;-71
2021/01/19 13:19:34;;;;;;;4.06;1.50;;;;;;;2.44;88.23;99177.53;2015416;80;20419;-72
2021/01/19 13:22:36;;;;;;;5.43;1.23;;;;;;;2.43;88.26;99165.53;2015317;80;20346;-72
2021/01/19 13:25:38;;;;;;;3.74;1.44;;;;;;;2.44;88.26;99169.84;2014841;80;20384;-72
2021/01/19 13:28:40;;;;;;;4.81;1.26;;;;;;;2.46;88.26;99165.63;2015340;80;20727;-72
2021/01/19 13:31:42;;;;;;;3.76;1.60;;;;;;;2.47;88.25;99159.66;2013743;77;71769;-72
2021/01/19 13:34:43;;;;;;;4.70;1.75;;;;;;;2.46;88.39;99168.19;2015277;80;20309;-72
2021/01/19 13:37:45;;;;;;;4.06;1.27;;;;;;;2.50;88.48;99156.28;2015682;80;20331;-71
2021/01/19 13:40:47;;;;;;;3.65;1.13;;;;;;;2.50;88.49;99156.28;2015432;80;20333;-72
2021/01/19 13:43:49;;;;;;;3.86;1.20;;;;;;;2.55;88.52;99159.84;2015283;80;20390;-71
2021/01/19 13:46:51;;;;;;;4.13;1.16;;;;;;;2.58;88.43;99155.66;2015083;77;20481;-72
2021/01/19 13:49:53;;;;;;;4.09;1.39;;;;;;;2.63;88.29;99153.19;2015817;80;20332;-71
2021/01/19 13:52:54;;;;;;;5.90;1.40;;;;;;;2.63;88.19;99159.19;2015799;80;20335;-71
2021/01/19 13:55:56;;;;;;;4.41;1.19;;;;;;;2.65;88.03;99159.22;2014995;80;20389;-71
2021/01/19 13:58:58;;;;;;;1.67;1.10;;;;;;;2.66;87.90;99161.81;2015826;80;20359;-72
2021/01/19 14:02:00;;;;;;;2.63;1.30;;;;;;;2.68;87.89;99155.03;2014202;78;23933;-72
2021/01/19 14:05:02;;;;;;;3.09;1.02;;;;;;;2.67;87.81;99158.44;2014369;80;20944;-72
2021/01/19 14:08:04;;;;;;;3.06;1.31;;;;;;;2.65;87.73;99149.84;2015389;80;20448;-71
2021/01/19 14:11:05;;;;;;;3.89;1.15;;;;;;;2.63;87.76;99154.06;2015047;80;20309;-71
2021/01/19 14:14:19;;;;;;;6.65;1.40;;;;;;;2.64;87.94;99149.81;2014742;80;20317;-71
2021/01/19 14:17:21;;;;;;;3.95;1.04;;;;;;;2.65;87.84;99147.28;2015608;78;20424;-71
2021/01/19 14:20:22;;;;;;;4.03;1.45;;;;;;;2.67;87.75;99145.59;2015379;80;20332;-71
2021/01/19 14:23:24;;;;;;;3.75;1.14;;;;;;;2.67;87.69;99148.16;2015381;80;20997;-71
2021/01/19 14:26:28;;;;;;;5.85;1.79;;;;;;;2.65;87.62;99148.97;2014527;80;21066;-72
2021/01/19 14:29:29;;;;;;;2.44;1.10;;;;;;;2.67;87.68;99155.88;2015079;80;20388;-72
2021/01/19 14:32:31;;;;;;;3.33;1.35;;;;;;;2.68;87.61;99154.16;2014383;80;28784;-73
2021/01/19 14:35:33;;;;;;;4.40;1.96;;;;;;;2.67;87.52;99148.16;2014808;80;20345;-73
2021/01/19 14:38:35;;;;;;;3.21;1.64;;;;;;;2.69;87.58;99158.47;2015330;80;20949;-72
2021/01/19 14:41:41;;;;;;;4.97;1.63;;;;;;;2.70;87.71;99161.09;2015136;80;20329;-72
2021/01/19 14:44:43;;;;;;;3.11;1.60;;;;;;;2.74;87.67;99164.59;2015438;80;20810;-72
2021/01/19 14:47:44;;;;;;;2.39;1.79;;;;;;;2.74;87.55;99167.13;2015026;77;21868;-72
2021/01/19 14:50:47;;;;;;;5.74;1.85;;;;;;;2.72;87.63;99164.53;2015661;80;20386;-71
2021/01/19 14:53:50;;;;;;;3.70;1.70;;;;;;;2.71;87.54;99159.38;2015099;80;20357;-72
2021/01/19 14:56:52;;;;;;;3.09;1.88;;;;;;;2.66;87.62;99166.09;2015698;80;20832;-71
2021/01/19 14:59:56;;;;;;;4.84;2.00;;;;;;;2.63;87.58;99173.72;2015977;80;20809;-72
2021/01/19 15:02:57;;;;;;;6.64;2.42;;;;;;;2.58;87.33;99183.84;2014737;77;21001;-72
2021/01/19 15:05:59;;;;;;;4.65;2.40;;;;;;;2.58;87.37;99171.03;2015381;80;20327;-72
2021/01/19 15:09:01;;;;;;;4.10;2.33;;;;;;;2.56;87.32;99174.41;2015196;80;20372;-72
2021/01/19 15:12:06;;;;;;;2.28;1.84;;;;;;;2.52;87.38;99180.28;2015389;80;20366;-72
2021/01/19 15:15:08;;;;;;;4.90;2.10;;;;;;;2.45;87.48;99171.56;2014828;80;20329;-72
2021/01/19 15:18:09;;;;;;;5.01;2.38;;;;;;;2.43;87.71;99166.41;2015341;78;25953;-72